Irvine, PA (16369)

4:07 AM EDT on March 30, 2015 (GMT -0400)
Brokenstraw Airport | | Change Station
CLOSE
Current Station
Personal Weather Station
Location: Pittsfield, PA
Elevation: 1235 ft
Nearby Weather Stations

Elev 1235 ft 41.83 °N, 79.36 °W | Updated 57 seconds ago

Overcast
Overcast
34.8 °F
Feels Like 26 °F
N
14.0
Wind Variable Wind from WSW
Gusts 26.0 mph

Today
High -- | Low -- °F
--% Chance of Precip.
Yesterday
High -- | Low -- °F
Precip. -- in
7:03 AM 7:39 PM
Waxing Gibbous, 78% visible
Pressure 29.70 in
Visibility 3.0 miles
Clouds Overcast 700 ft
Windchill 26 °F
Dew Point 33 °F
Humidity 93%
Rainfall 0.02 in
Snow Depth Not available.
UV 0 out of 12
Pollen 3.40 out of 12
Air Quality Not available.
Flu Activity Not available.
METAR KJHW 300755Z 21010G21KT 3SM OVC007 01/M01 A2970 RMK AO1

More Conditions Fewer Conditions

Pressure 29.70 in
Visibility 3.0 miles
Clouds Overcast 700 ft
Windchill 26 °F
Dew Point 33 °F
Humidity 93%
Rainfall 0.02 in
Snow Depth Not available.
UV 0 out of 12
Pollen 3.40 out of 12
Air Quality Not available.
Flu Activity Not available.
METAR KJHW 300755Z 21010G21KT 3SM OVC007 01/M01 A2970 RMK AO1

More Conditions Fewer Conditions

Nowcast | as of 12:48 am EDT on March 30, 2015

Patchy snow and gusty winds will be across the area through 4 am. The snow may come down hard for a brief time. Wind gust to 40 mph will be likely. Snow accumulation is expected to be on the light side.

×

10-Day Weather Forecast

Almanac

Astronomy

Mar. 30, 2015 Rise Set
Actual Time
Civil Twilight
Nautical Twilight
Astronomical Twilight
Moon
Length of Visible Light
Length of Day
Tomorrow will be .
, % of the Moon is Illuminated

Today's Extremes

State Highs State Lows

Community

WunderPhotos

Upload Photos

1,809,449 photos uploaded!

WunderBlogs® & News

Nearby

Air Quality

  Air Quality AQ Index Pollutant
Not available.

Snow Depth

Station Depth Elevation

Earthquake Activity

City Distance Mag. Time & Date
Minimum magnitude displayed is 2.5.

Coastal Water Temperatures

Place Temperature

Stations

Nearby Weather Stations

Station Location Temp. Windchill Dew Point Humidity Wind Precip. Elev Updated Type